SWA2062 KRDU-KLGA
Flight info
| Callsign | SWA2062 |
|---|---|
| Flight time | N/A |
| Altitude | 37000 |
| Route | BEXGO5 BOUSY DCT GEARS Q87 HURTS PROUD2 |
| Aircraft | B738/M-SDE2E3FGHIRWXY/LB1 |
Departure
| Time | 2026-05-07 02:08 |
|---|---|
| Airport | Raleigh-Durham International Airport (KRDU) |
Arrival
| Time | N/A |
|---|---|
| Airport | LaGuardia Airport (KLGA) |
| Time | Latitude | Longitude | Altitude | Speed | Heading |
|---|---|---|---|---|---|
| 2026-05-07 01:23 | 35.87670 | -78.79525 | 386 ft | 0 kts | 135° |
| 2026-05-07 01:24 | 35.87616 | -78.79597 | 384 ft | 0 kts | 135° |
| 2026-05-07 01:56 | 35.87617 | -78.79598 | 384 ft | 1 kts | 136° |
| 2026-05-07 01:56 | 35.87626 | -78.79612 | 383 ft | 2 kts | 130° |
| 2026-05-07 01:56 | 35.87635 | -78.79627 | 383 ft | 2 kts | 109° |
| 2026-05-07 01:56 | 35.87638 | -78.79645 | 382 ft | 2 kts | 89° |
| 2026-05-07 01:57 | 35.87636 | -78.79663 | 381 ft | 2 kts | 66° |
| 2026-05-07 01:57 | 35.87628 | -78.79679 | 381 ft | 2 kts | 44° |
| 2026-05-07 01:57 | 35.87620 | -78.79687 | 381 ft | 1 kts | 41° |
| 2026-05-07 01:57 | 35.87611 | -78.79699 | 380 ft | 1 kts | 44° |
| 2026-05-07 02:01 | 35.87622 | -78.79685 | 381 ft | 4 kts | 44° |
| 2026-05-07 02:01 | 35.87662 | -78.79637 | 382 ft | 10 kts | 45° |
| 2026-05-07 02:01 | 35.87706 | -78.79582 | 383 ft | 7 kts | 45° |
| 2026-05-07 02:02 | 35.87739 | -78.79542 | 384 ft | 5 kts | 45° |
| 2026-05-07 02:02 | 35.87779 | -78.79492 | 385 ft | 10 kts | 45° |
| 2026-05-07 02:02 | 35.87838 | -78.79417 | 387 ft | 15 kts | 46° |
| 2026-05-07 02:02 | 35.87915 | -78.79323 | 389 ft | 14 kts | 45° |
| 2026-05-07 02:03 | 35.87980 | -78.79243 | 391 ft | 11 kts | 44° |
| 2026-05-07 02:03 | 35.88049 | -78.79158 | 393 ft | 14 kts | 46° |
| 2026-05-07 02:03 | 35.88129 | -78.79059 | 395 ft | 18 kts | 45° |
| 2026-05-07 02:03 | 35.88227 | -78.78937 | 399 ft | 19 kts | 45° |
| 2026-05-07 02:04 | 35.88321 | -78.78819 | 401 ft | 21 kts | 46° |
| 2026-05-07 02:04 | 35.88423 | -78.78693 | 403 ft | 19 kts | 44° |
| 2026-05-07 02:04 | 35.88515 | -78.78580 | 404 ft | 18 kts | 45° |
| 2026-05-07 02:04 | 35.88552 | -78.78535 | 403 ft | 0 kts | 45° |
| 2026-05-07 02:05 | 35.88573 | -78.78509 | 403 ft | 10 kts | 45° |
| 2026-05-07 02:05 | 35.88656 | -78.78406 | 402 ft | 19 kts | 45° |
| 2026-05-07 02:05 | 35.88748 | -78.78288 | 400 ft | 19 kts | 46° |
| 2026-05-07 02:05 | 35.88843 | -78.78175 | 399 ft | 18 kts | 45° |
| 2026-05-07 02:06 | 35.88931 | -78.78068 | 400 ft | 17 kts | 45° |
| 2026-05-07 02:06 | 35.88987 | -78.77950 | 401 ft | 15 kts | 70° |
| 2026-05-07 02:06 | 35.89040 | -78.77854 | 403 ft | 12 kts | 44° |
| 2026-05-07 02:06 | 35.89117 | -78.77756 | 404 ft | 18 kts | 45° |
| 2026-05-07 02:07 | 35.89202 | -78.77660 | 406 ft | 6 kts | 19° |
| 2026-05-07 02:07 | 35.89288 | -78.77715 | 404 ft | 6 kts | 315° |
| 2026-05-07 02:07 | 35.89329 | -78.77764 | 403 ft | 13 kts | 314° |
| 2026-05-07 02:08 | 35.89320 | -78.77879 | 401 ft | 25 kts | 225° |
| 2026-05-07 02:08 | 35.89020 | -78.78244 | 393 ft | 103 kts | 225° |
| 2026-05-07 02:08 | 35.88315 | -78.79115 | 396 ft | 178 kts | 224° |
| 2026-05-07 02:08 | 35.87412 | -78.80276 | 1150 ft | 192 kts | 226° |
| 2026-05-07 02:09 | 35.86534 | -78.81352 | 2401 ft | 181 kts | 226° |
| 2026-05-07 02:09 | 35.85606 | -78.82410 | 3170 ft | 189 kts | 225° |
| 2026-05-07 02:09 | 35.84593 | -78.83532 | 3844 ft | 202 kts | 225° |
| 2026-05-07 02:09 | 35.83509 | -78.84727 | 4429 ft | 221 kts | 225° |
| 2026-05-07 02:10 | 35.82345 | -78.86010 | 5310 ft | 227 kts | 225° |
| 2026-05-07 02:10 | 35.81163 | -78.87302 | 5893 ft | 236 kts | 225° |
| 2026-05-07 02:10 | 35.79907 | -78.88657 | 5958 ft | 239 kts | 224° |
| 2026-05-07 02:10 | 35.78669 | -78.89991 | 5986 ft | 233 kts | 225° |
| 2026-05-07 02:11 | 35.77459 | -78.91292 | 5989 ft | 230 kts | 225° |
| 2026-05-07 02:11 | 35.76290 | -78.92625 | 5977 ft | 226 kts | 234° |
| 2026-05-07 02:11 | 35.75644 | -78.94426 | 6109 ft | 245 kts | 263° |
| 2026-05-07 02:11 | 35.75907 | -78.96500 | 6883 ft | 261 kts | 291° |
| 2026-05-07 02:12 | 35.77017 | -78.98277 | 7915 ft | 269 kts | 313° |
| 2026-05-07 02:12 | 35.78496 | -78.99675 | 8908 ft | 274 kts | 319° |
| 2026-05-07 02:12 | 35.80063 | -79.00996 | 9900 ft | 276 kts | 320° |
| 2026-05-07 02:12 | 35.81654 | -79.02325 | 10636 ft | 286 kts | 320° |
| 2026-05-07 02:13 | 35.83309 | -79.03708 | 11530 ft | 289 kts | 320° |
| 2026-05-07 02:13 | 35.85022 | -79.05144 | 11904 ft | 306 kts | 320° |
| 2026-05-07 02:13 | 35.86772 | -79.06620 | 11959 ft | 307 kts | 320° |
| 2026-05-07 02:13 | 35.88522 | -79.08083 | 11977 ft | 298 kts | 320° |
| 2026-05-07 02:14 | 35.90223 | -79.09498 | 11982 ft | 292 kts | 320° |
| 2026-05-07 02:14 | 35.91922 | -79.10915 | 11983 ft | 296 kts | 320° |
| 2026-05-07 02:14 | 35.93637 | -79.12350 | 11984 ft | 298 kts | 320° |
| 2026-05-07 02:14 | 35.95332 | -79.13764 | 11967 ft | 295 kts | 320° |
| 2026-05-07 02:15 | 35.97039 | -79.15185 | 11976 ft | 297 kts | 320° |
| 2026-05-07 02:15 | 35.98765 | -79.16622 | 11975 ft | 299 kts | 320° |
| 2026-05-07 02:15 | 36.00478 | -79.18051 | 11968 ft | 297 kts | 320° |
| 2026-05-07 02:15 | 36.02200 | -79.19490 | 11973 ft | 298 kts | 320° |
| 2026-05-07 02:16 | 36.03916 | -79.20916 | 11968 ft | 297 kts | 320° |
| 2026-05-07 02:16 | 36.05636 | -79.22344 | 11976 ft | 297 kts | 320° |
| 2026-05-07 02:16 | 36.07343 | -79.23756 | 11970 ft | 297 kts | 320° |
| 2026-05-07 02:16 | 36.09063 | -79.25178 | 11975 ft | 297 kts | 320° |
| 2026-05-07 02:17 | 36.10787 | -79.26601 | 11970 ft | 295 kts | 320° |
| 2026-05-07 02:17 | 36.12485 | -79.27994 | 11974 ft | 295 kts | 320° |
| 2026-05-07 02:17 | 36.14213 | -79.29412 | 11983 ft | 295 kts | 320° |
| 2026-05-07 02:17 | 36.15921 | -79.30814 | 11987 ft | 298 kts | 320° |
| 2026-05-07 02:18 | 36.17677 | -79.32265 | 12582 ft | 309 kts | 320° |
| 2026-05-07 02:18 | 36.19489 | -79.33759 | 13137 ft | 322 kts | 320° |
| 2026-05-07 02:18 | 36.21365 | -79.35317 | 13791 ft | 332 kts | 320° |
| 2026-05-07 02:18 | 36.23335 | -79.36957 | 14169 ft | 349 kts | 320° |
| 2026-05-07 02:19 | 36.25378 | -79.38672 | 14687 ft | 361 kts | 320° |
| 2026-05-07 02:19 | 36.27475 | -79.40430 | 15199 ft | 373 kts | 319° |
| 2026-05-07 02:19 | 36.29633 | -79.42225 | 16011 ft | 374 kts | 319° |
| 2026-05-07 02:19 | 36.31781 | -79.43993 | 16853 ft | 375 kts | 320° |
| 2026-05-07 02:20 | 36.33973 | -79.45789 | 17552 ft | 378 kts | 320° |
| 2026-05-07 02:20 | 36.36160 | -79.47562 | 18303 ft | 380 kts | 320° |